Time;durP1;ratioP1;P1;durP2;ratioP2;P2;SDS_P1;SDS_P2;PMS_P1;PMS_P2;Temp;Humidity;BMP_temperature;BMP_pressure;BME280_temperature;BME280_humidity;BME280_pressure;Samples;Min_cycle;Max_cycle;Signal;HPM_P1;HPM_P2
2022/08/26 00:02:26;;;;;;;;;;;;;;;23.58;77.28;96555.64;534096;265;68728;-68
2022/08/26 00:04:54;;;;;;;;;;;;;;;23.58;77.28;96549.49;534097;265;68705;-68
2022/08/26 00:07:21;;;;;;;;;;;;;;;23.56;77.28;96552.45;533932;265;64784;-68
2022/08/26 00:09:49;;;;;;;;;;;;;;;23.56;77.22;96551.67;534142;265;68793;-68
2022/08/26 00:12:17;;;;;;;;;;;;;;;23.57;77.29;96548.70;534087;265;66528;-68
2022/08/26 00:14:44;;;;;;;;;;;;;;;23.56;77.17;96547.09;532778;265;65052;-70
2022/08/26 00:17:12;;;;;;;;;;;;;;;23.57;77.21;96546.02;531420;264;66713;-71
2022/08/26 00:19:40;;;;;;;;;;;;;;;23.57;77.25;96548.70;531250;264;68320;-71
2022/08/26 00:22:07;;;;;;;;;;;;;;;23.57;77.18;96548.70;531308;266;62563;-71
2022/08/26 00:24:35;;;;;;;;;;;;;;;23.56;77.13;96547.09;531195;267;68830;-71
2022/08/26 00:27:03;;;;;;;;;;;;;;;23.56;77.13;96549.78;531124;264;68945;-71
2022/08/26 00:29:33;;;;;;;;;;;;;;;23.56;77.13;96547.09;531129;267;65072;-71
2022/08/26 00:32:01;;;;;;;;;;;;;;;23.56;77.16;96544.41;531405;264;66599;-71
2022/08/26 00:34:29;;;;;;;;;;;;;;;23.56;77.05;96547.09;531327;264;68592;-71
2022/08/26 00:36:56;;;;;;;;;;;;;;;23.57;77.07;96542.52;531266;264;65459;-70
2022/08/26 00:39:24;;;;;;;;;;;;;;;23.56;77.20;96538.26;531152;266;68713;-70
2022/08/26 00:41:52;;;;;;;;;;;;;;;23.55;77.20;96534.79;531106;266;68627;-70
2022/08/26 00:44:20;;;;;;;;;;;;;;;23.55;77.14;96540.16;531143;266;62938;-70
2022/08/26 00:46:49;;;;;;;;;;;;;;;23.55;77.16;96539.36;531166;264;68443;-70
2022/08/26 00:49:18;;;;;;;;;;;;;;;23.55;77.19;96542.05;531171;266;66456;-71
2022/08/26 00:51:48;;;;;;;;;;;;;;;23.56;77.17;96546.30;531070;267;64928;-68
2022/08/26 00:54:16;;;;;;;;;;;;;;;23.55;77.08;96540.16;531053;264;66747;-68
2022/08/26 00:56:46;;;;;;;;;;;;;;;23.55;77.16;96532.11;531157;267;68761;-68
2022/08/26 00:59:14;;;;;;;;;;;;;;;23.55;77.25;96534.79;531132;264;63842;-69
2022/08/26 01:01:43;;;;;;;;;;;;;;;23.54;77.37;96527.81;531142;266;69147;-71
2022/08/26 01:04:11;;;;;;;;;;;;;;;23.55;77.34;96534.79;531560;264;68621;-71
2022/08/26 01:06:41;;;;;;;;;;;;;;;23.55;77.33;96540.16;531079;267;63123;-71
2022/08/26 01:09:09;;;;;;;;;;;;;;;23.55;77.30;96540.16;531203;266;66392;-71
2022/08/26 01:11:37;;;;;;;;;;;;;;;23.55;77.25;96550.88;531216;266;69347;-71
2022/08/26 01:14:06;;;;;;;;;;;;;;;23.55;77.17;96544.73;531160;262;65031;-71
2022/08/26 01:16:34;;;;;;;;;;;;;;;23.55;77.21;96545.52;531371;264;66310;-71
2022/08/26 01:19:16;;;;;;;;;;;;;;;23.55;77.29;96545.52;531619;264;66528;-71
2022/08/26 01:21:53;;;;;;;;;;;;;;;23.54;77.21;96541.23;531222;264;62936;-70
2022/08/26 01:24:22;;;;;;;;;;;;;;;23.54;77.21;96533.18;531321;264;68342;-70
2022/08/26 01:26:50;;;;;;;;;;;;;;;23.54;77.20;96537.75;531249;264;68235;-70
2022/08/26 01:29:19;;;;;;;;;;;;;;;23.53;77.21;96550.38;531130;266;64934;-67
2022/08/26 01:31:48;;;;;;;;;;;;;;;23.54;77.20;96545.80;531169;266;68511;-68
2022/08/26 01:34:20;;;;;;;;;;;;;;;23.54;77.13;96548.48;530982;267;66270;-68
2022/08/26 01:36:49;;;;;;;;;;;;;;;23.54;77.14;96549.27;531480;264;64804;-68
2022/08/26 01:39:18;;;;;;;;;;;;;;;23.53;77.05;96547.70;531125;266;68748;-68
2022/08/26 01:41:46;;;;;;;;;;;;;;;23.53;77.04;96541.54;531134;266;68965;-70
2022/08/26 01:44:15;;;;;;;;;;;;;;;23.52;77.13;96538.07;531249;264;62875;-70
2022/08/26 01:46:44;;;;;;;;;;;;;;;23.53;77.13;96536.18;531226;266;68997;-71
2022/08/26 01:49:13;;;;;;;;;;;;;;;23.53;77.15;96542.33;531128;266;68920;-71
2022/08/26 01:51:43;;;;;;;;;;;;;;;23.53;77.13;96541.54;531174;266;65893;-71
2022/08/26 01:54:11;;;;;;;;;;;;;;;23.54;77.11;96549.27;531470;264;68954;-71
2022/08/26 01:56:39;;;;;;;;;;;;;;;23.52;77.14;96546.12;531185;266;68450;-71
2022/08/26 01:59:08;;;;;;;;;;;;;;;23.52;77.13;96540.75;531150;266;64659;-71
2022/08/26 02:01:36;;;;;;;;;;;;;;;23.52;76.99;96546.12;531109;266;68449;-71
2022/08/26 02:04:11;;;;;;;;;;;;;;;23.52;76.95;96535.39;531191;266;66598;-71
2022/08/26 02:06:39;;;;;;;;;;;;;;;23.52;77.02;96538.07;529689;266;65938;-70
2022/08/26 02:09:07;;;;;;;;;;;;;;;23.53;77.07;96541.54;531131;264;66808;-70
2022/08/26 02:11:35;;;;;;;;;;;;;;;23.53;77.07;96533.50;531184;264;67456;-70
2022/08/26 02:14:04;;;;;;;;;;;;;;;23.52;77.06;96540.75;531204;266;65199;-70
2022/08/26 02:16:33;;;;;;;;;;;;;;;23.52;77.05;96543.44;531283;266;66510;-71
2022/08/26 02:19:01;;;;;;;;;;;;;;;23.53;77.00;96544.23;531197;264;68772;-71
2022/08/26 02:21:30;;;;;;;;;;;;;;;23.52;77.05;96539.94;531127;267;62859;-71
2022/08/26 02:23:59;;;;;;;;;;;;;;;23.52;77.08;96539.94;531569;264;69051;-70
2022/08/26 02:26:26;;;;;;;;;;;;;;;23.52;77.07;96543.44;530915;264;68627;-71
2022/08/26 02:28:58;;;;;;;;;;;;;;;23.52;77.07;96539.94;531453;264;62840;-70
2022/08/26 02:31:26;;;;;;;;;;;;;;;23.52;77.05;96538.07;531123;267;67546;-70
2022/08/26 02:33:53;;;;;;;;;;;;;;;23.51;76.99;96544.51;531214;266;66526;-70
2022/08/26 02:36:22;;;;;;;;;;;;;;;23.52;76.99;96553.34;531270;264;65405;-71
2022/08/26 02:38:50;;;;;;;;;;;;;;;23.52;76.97;96551.48;531871;264;68791;-71
2022/08/26 02:41:17;;;;;;;;;;;;;;;23.52;77.02;96551.48;531162;266;68556;-70
2022/08/26 02:43:44;;;;;;;;;;;;;;;23.52;76.99;96548.80;531139;264;64904;-68
2022/08/26 02:46:12;;;;;;;;;;;;;;;23.51;76.98;96544.51;531163;267;68793;-68
2022/08/26 02:48:39;;;;;;;;;;;;;;;23.51;76.93;96543.72;531406;264;68631;-68
2022/08/26 02:51:07;;;;;;;;;;;;;;;23.52;76.91;96548.80;531140;267;65210;-67
2022/08/26 02:53:35;;;;;;;;;;;;;;;23.52;76.99;96546.12;531164;266;68826;-68
2022/08/26 02:56:03;;;;;;;;;;;;;;;23.51;77.04;96549.08;531153;264;69776;-67
2022/08/26 02:58:31;;;;;;;;;;;;;;;23.52;77.03;96556.03;531367;264;62894;-68
2022/08/26 03:00:59;;;;;;;;;;;;;;;23.51;77.04;96552.55;531349;264;68762;-70
2022/08/26 03:03:26;;;;;;;;;;;;;;;23.51;77.03;96554.45;531348;264;68457;-70
2022/08/26 03:05:54;;;;;;;;;;;;;;;23.51;77.04;96555.23;531172;266;66110;-70
2022/08/26 03:08:21;;;;;;;;;;;;;;;23.50;76.99;96556.34;531455;264;68605;-70
2022/08/26 03:10:49;;;;;;;;;;;;;;;23.51;76.92;96555.23;531393;264;66593;-70
2022/08/26 03:13:17;;;;;;;;;;;;;;;23.50;76.93;96556.34;531269;266;66203;-70
2022/08/26 03:15:44;;;;;;;;;;;;;;;23.51;76.92;96568.64;531120;266;69481;-70
2022/08/26 03:18:12;;;;;;;;;;;;;;;23.50;76.86;96569.75;531396;264;69494;-70
2022/08/26 03:20:40;;;;;;;;;;;;;;;23.51;76.79;96562.49;531294;264;65270;-70
2022/08/26 03:23:08;;;;;;;;;;;;;;;23.50;76.81;96567.07;531172;266;66899;-70
2022/08/26 03:25:35;;;;;;;;;;;;;;;23.50;76.77;96569.75;531300;264;66540;-70
2022/08/26 03:28:03;;;;;;;;;;;;;;;23.49;76.75;96566.28;531486;264;62917;-70
2022/08/26 03:30:39;;;;;;;;;;;;;;;23.50;76.74;96569.75;531306;264;67528;-68
2022/08/26 03:33:09;;;;;;;;;;;;;;;23.50;76.78;96567.07;531114;267;66616;-68
2022/08/26 03:35:38;;;;;;;;;;;;;;;23.50;76.81;96569.75;531201;264;66217;-67
2022/08/26 03:38:07;;;;;;;;;;;;;;;23.51;76.82;96570.54;531152;266;68767;-68
2022/08/26 03:40:37;;;;;;;;;;;;;;;23.49;76.79;96568.17;531103;267;68632;-67
2022/08/26 03:43:05;;;;;;;;;;;;;;;23.49;76.82;96565.48;531165;264;64802;-68
2022/08/26 03:45:33;;;;;;;;;;;;;;;23.49;76.74;96574.33;531205;264;66765;-68
2022/08/26 03:48:02;;;;;;;;;;;;;;;23.49;76.71;96578.90;531120;267;68605;-67
2022/08/26 03:50:29;;;;;;;;;;;;;;;23.48;76.70;96579.97;531217;264;62907;-67
2022/08/26 03:52:57;;;;;;;;;;;;;;;23.49;76.79;96589.62;531268;264;68775;-68
2022/08/26 03:55:26;;;;;;;;;;;;;;;23.49;76.79;96585.05;531072;266;66536;-68
2022/08/26 03:57:54;;;;;;;;;;;;;;;23.49;76.84;96584.27;531216;266;66166;-68
2022/08/26 04:00:21;;;;;;;;;;;;;;;23.49;76.86;96594.99;531116;264;68964;-68
2022/08/26 04:02:49;;;;;;;;;;;;;;;23.49;76.85;96586.95;531154;266;68339;-68
2022/08/26 04:05:18;;;;;;;;;;;;;;;23.48;76.80;96588.02;531139;267;62884;-68
2022/08/26 04:07:46;;;;;;;;;;;;;;;23.48;76.78;96588.02;531267;264;66555;-68
2022/08/26 04:10:16;;;;;;;;;;;;;;;23.48;76.74;96588.02;531554;264;68928;-70
2022/08/26 04:12:44;;;;;;;;;;;;;;;23.48;76.73;96588.02;531125;266;65246;-70
2022/08/26 04:15:13;;;;;;;;;;;;;;;23.48;76.69;96582.66;531178;264;69770;-70
2022/08/26 04:17:40;;;;;;;;;;;;;;;23.48;76.65;96596.06;531140;266;66506;-70
2022/08/26 04:20:08;;;;;;;;;;;;;;;23.48;76.70;96593.38;531305;264;62985;-69
2022/08/26 04:22:35;;;;;;;;;;;;;;;23.47;76.63;96600.64;531175;266;69817;-69
2022/08/26 04:25:03;;;;;;;;;;;;;;;23.47;76.65;96597.17;531241;266;67435;-69
2022/08/26 04:27:31;;;;;;;;;;;;;;;23.48;76.57;96593.38;531133;267;66141;-69
2022/08/26 04:29:58;;;;;;;;;;;;;;;23.47;76.56;96597.17;531349;264;68419;-67
2022/08/26 04:32:26;;;;;;;;;;;;;;;23.47;76.52;96597.17;531488;264;69496;-67
2022/08/26 04:34:53;;;;;;;;;;;;;;;23.47;76.40;96595.27;531918;264;65178;-67
2022/08/26 04:37:21;;;;;;;;;;;;;;;23.47;76.30;96592.59;531408;264;66705;-67
2022/08/26 04:39:52;;;;;;;;;;;;;;;23.47;76.22;96597.17;531168;266;67472;-68
2022/08/26 04:42:20;;;;;;;;;;;;;;;23.47;76.25;96594.48;531182;266;65152;-68
2022/08/26 04:44:47;;;;;;;;;;;;;;;23.47;76.27;96594.48;531134;267;66533;-68
2022/08/26 04:47:15;;;;;;;;;;;;;;;23.46;76.22;96591.02;531116;267;67471;-69
2022/08/26 04:49:42;;;;;;;;;;;;;;;23.46;76.21;96587.52;531363;264;63000;-69
2022/08/26 04:52:10;;;;;;;;;;;;;;;23.46;76.27;96590.20;531164;266;68828;-68
2022/08/26 04:54:38;;;;;;;;;;;;;;;23.46;76.32;96590.20;531137;264;69417;-69
2022/08/26 04:57:05;;;;;;;;;;;;;;;23.46;76.31;96591.02;531037;266;62848;-69
2022/08/26 04:59:33;;;;;;;;;;;;;;;23.46;76.35;96593.70;524296;266;70003;-68
2022/08/26 05:02:02;;;;;;;;;;;;;;;23.46;76.27;96595.56;531132;266;66579;-68
2022/08/26 05:04:30;;;;;;;;;;;;;;;23.45;76.25;96584.05;530955;266;65241;-68
2022/08/26 05:06:57;;;;;;;;;;;;;;;23.46;76.26;96591.02;530620;266;68960;-68
2022/08/26 05:09:26;;;;;;;;;;;;;;;23.46;76.31;96584.83;531140;264;68712;-68
2022/08/26 05:11:54;;;;;;;;;;;;;;;23.45;76.36;96577.89;531016;263;66339;-68
2022/08/26 05:14:22;;;;;;;;;;;;;;;23.45;76.31;96589.41;532001;262;68745;-69
2022/08/26 05:16:50;;;;;;;;;;;;;;;23.44;76.23;96590.51;534138;265;68128;-70
2022/08/26 05:19:17;;;;;;;;;;;;;;;23.46;76.20;96588.33;534267;264;65417;-69
2022/08/26 05:21:46;;;;;;;;;;;;;;;23.45;76.13;96588.61;534092;265;68557;-69
2022/08/26 05:24:14;;;;;;;;;;;;;;;23.45;76.05;96593.98;534057;265;68830;-69
2022/08/26 05:26:41;;;;;;;;;;;;;;;23.45;76.05;96588.61;534028;265;66333;-69
2022/08/26 05:29:09;;;;;;;;;;;;;;;23.45;76.14;96591.30;534136;265;68529;-69
2022/08/26 05:31:36;;;;;;;;;;;;;;;23.44;76.17;96590.51;534068;265;69400;-69
2022/08/26 05:34:04;;;;;;;;;;;;;;;23.45;76.23;96592.09;534054;265;62881;-69
2022/08/26 05:36:34;;;;;;;;;;;;;;;23.45;76.17;96588.61;533939;265;68502;-70
2022/08/26 05:39:02;;;;;;;;;;;;;;;23.44;76.22;96590.51;534174;265;68484;-70
2022/08/26 05:41:31;;;;;;;;;;;;;;;23.44;76.25;96584.36;534018;265;62781;-69
2022/08/26 05:44:00;;;;;;;;;;;;;;;23.44;76.31;96578.99;533980;265;67522;-69
2022/08/26 05:46:30;;;;;;;;;;;;;;;23.45;76.38;96588.61;533824;263;50884;-68
2022/08/26 05:48:58;;;;;;;;;;;;;;;23.45;76.33;96593.98;534004;265;63133;-68
2022/08/26 05:51:26;;;;;;;;;;;;;;;23.44;76.32;96587.04;534114;265;69114;-67
2022/08/26 05:53:59;;;;;;;;;;;;;;;23.43;76.23;96583.53;533710;265;68686;-69
2022/08/26 05:56:24;;;;;;;;;;;;;;;23.44;76.25;96587.04;533989;265;65208;-70
2022/08/26 05:58:53;;;;;;;;;;;;;;;23.44;76.19;96581.67;534295;264;68793;-67
2022/08/26 06:01:22;;;;;;;;;;;;;;;23.44;76.29;96581.67;534115;265;66489;-68
2022/08/26 06:03:50;;;;;;;;;;;;;;;23.43;76.23;96580.06;534218;265;65003;-68
2022/08/26 06:06:19;;;;;;;;;;;;;;;23.43;76.24;96578.17;534206;265;68889;-68
2022/08/26 06:08:47;;;;;;;;;;;;;;;23.43;76.25;96580.85;534203;265;66505;-68
2022/08/26 06:11:16;;;;;;;;;;;;;;;23.44;76.25;96587.04;534222;265;63141;-67
2022/08/26 06:13:43;;;;;;;;;;;;;;;23.43;76.28;96598.84;534177;265;70400;-68
2022/08/26 06:16:12;;;;;;;;;;;;;;;23.43;74.80;96601.52;532187;266;68778;-68
2022/08/26 06:18:41;;;;;;;;;;;;;;;23.44;75.59;96592.40;532364;266;62924;-69
2022/08/26 06:21:16;;;;;;;;;;;;;;;23.44;76.33;96597.77;532400;266;66486;-69
2022/08/26 06:26:31;;;;;;;;;;;;;;;23.44;76.61;96603.13;532328;266;62831;-69
2022/08/26 06:29:04;;;;;;;;;;;;;;;23.46;76.74;96598.24;532233;266;48303;-68
2022/08/26 06:31:32;;;;;;;;;;;;;;;23.45;76.82;96597.45;532161;266;66527;-68
2022/08/26 06:34:00;;;;;;;;;;;;;;;23.46;76.85;96603.61;532618;262;66184;-68
2022/08/26 06:36:29;;;;;;;;;;;;;;;23.45;76.83;96602.81;537357;262;67493;-68
2022/08/26 06:38:58;;;;;;;;;;;;;;;23.46;76.86;96601.74;538218;263;69082;-68
2022/08/26 06:41:26;;;;;;;;;;;;;;;23.46;76.90;96607.11;538278;263;65974;-66
2022/08/26 06:43:54;;;;;;;;;;;;;;;23.47;76.94;96600.64;538265;263;66444;-67
2022/08/26 06:46:22;;;;;;;;;;;;;;;23.47;76.89;96597.17;538202;263;66450;-67
2022/08/26 06:48:50;;;;;;;;;;;;;;;23.48;76.97;96598.75;538316;263;62728;-67
2022/08/26 06:51:19;;;;;;;;;;;;;;;23.48;76.92;96604.90;538154;263;66512;-66
2022/08/26 06:53:47;;;;;;;;;;;;;;;23.48;76.96;96610.27;538236;263;68713;-73
2022/08/26 06:56:16;;;;;;;;;;;;;;;23.49;76.70;96611.08;538176;263;65239;-67
2022/08/26 06:58:44;;;;;;;;;;;;;;;23.49;76.76;96617.23;537645;263;68724;-62
2022/08/26 07:01:16;;;;;;;;;;;;;;;23.49;76.74;96608.41;538306;263;68584;-61
2022/08/26 07:03:44;;;;;;;;;;;;;;;23.50;75.34;96604.62;538265;263;65022;-60
2022/08/26 07:06:12;;;;;;;;;;;;;;;23.49;76.06;96595.78;538065;263;66792;-61
2022/08/26 07:08:40;;;;;;;;;;;;;;;23.50;75.50;96601.94;538151;263;66716;-68
2022/08/26 07:11:08;;;;;;;;;;;;;;;23.49;75.09;96605.72;538238;263;65104;-67
2022/08/26 07:13:36;;;;;;;;;;;;;;;23.51;75.30;96606.20;529153;263;70210;-68
2022/08/26 07:16:05;;;;;;;;;;;;;;;23.49;75.38;96605.72;526999;265;70121;-68
2022/08/26 07:18:35;;;;;;;;;;;;;;;23.50;75.30;96601.94;524928;265;66645;-68
2022/08/26 07:21:04;;;;;;;;;;;;;;;23.50;75.17;96596.57;529164;265;67985;-68
2022/08/26 07:23:32;;;;;;;;;;;;;;;23.50;75.06;96591.20;529024;265;71728;-67
2022/08/26 07:26:01;;;;;;;;;;;;;;;23.56;73.68;96591.91;533849;265;65393;-68
2022/08/26 07:28:28;;;;;;;;;;;;;;;23.56;76.02;96594.59;533778;265;68744;-68
2022/08/26 07:30:56;;;;;;;;;;;;;;;23.55;75.86;96599.16;533841;265;68966;-68
2022/08/26 07:33:23;;;;;;;;;;;;;;;23.53;75.92;96598.66;533661;265;65456;-67
2022/08/26 07:35:51;;;;;;;;;;;;;;;23.53;75.79;96595.97;533710;265;68693;-68
2022/08/26 07:38:18;;;;;;;;;;;;;;;23.52;75.79;96594.39;533784;265;66459;-68
2022/08/26 07:40:46;;;;;;;;;;;;;;;23.53;75.73;96598.66;533893;265;62959;-68
2022/08/26 07:43:14;;;;;;;;;;;;;;;23.52;75.73;96588.21;533978;265;66508;-68
2022/08/26 07:45:42;;;;;;;;;;;;;;;23.52;75.71;96586.34;533767;265;68473;-67
2022/08/26 07:48:09;;;;;;;;;;;;;;;23.53;75.77;96582.56;533782;265;62750;-70
2022/08/26 07:50:37;;;;;;;;;;;;;;;23.53;75.84;96582.56;533839;265;66803;-70
2022/08/26 07:53:04;;;;;;;;;;;;;;;23.53;75.87;96579.09;533689;261;67110;-69
2022/08/26 07:55:33;;;;;;;;;;;;;;;23.53;75.90;96573.73;531211;265;65098;-67
2022/08/26 07:58:01;;;;;;;;;;;;;;;23.52;75.94;96578.30;532585;262;66538;-66
2022/08/26 08:00:31;;;;;;;;;;;;;;;23.53;75.98;96574.52;534160;265;68610;-69
2022/08/26 08:02:58;;;;;;;;;;;;;;;23.53;76.00;96579.09;534101;264;69798;-68
2022/08/26 08:05:26;;;;;;;;;;;;;;;23.53;76.06;96573.73;534131;265;68905;-69
2022/08/26 08:07:53;;;;;;;;;;;;;;;23.52;76.05;96564.89;534217;265;68641;-68
2022/08/26 08:10:22;;;;;;;;;;;;;;;23.53;76.06;96565.68;534156;265;65381;-66
2022/08/26 08:12:51;;;;;;;;;;;;;;;23.54;76.35;96572.63;534191;265;68573;-60
2022/08/26 08:15:20;;;;;;;;;;;;;;;23.53;76.18;96569.16;537952;263;66872;-67
2022/08/26 08:17:49;;;;;;;;;;;;;;;23.53;76.52;96571.05;539743;263;65722;-67
2022/08/26 08:20:17;;;;;;;;;;;;;;;23.54;76.38;96570.73;539838;263;69179;-66
2022/08/26 08:22:44;;;;;;;;;;;;;;;23.53;76.38;96558.42;539870;263;68660;-66
2022/08/26 08:25:13;;;;;;;;;;;;;;;23.53;76.33;96558.42;539787;263;62816;-67
2022/08/26 08:27:42;;;;;;;;;;;;;;;23.53;76.28;96561.11;539779;263;68994;-67
2022/08/26 08:30:10;;;;;;;;;;;;;;;23.53;76.32;96555.73;539833;263;68723;-66
2022/08/26 08:32:42;;;;;;;;;;;;;;;23.53;76.31;96563.79;539768;263;65169;-69
2022/08/26 08:35:11;;;;;;;;;;;;;;;23.53;76.28;96558.42;539891;263;66485;-65
2022/08/26 08:37:39;;;;;;;;;;;;;;;23.53;76.25;96563.79;539756;263;68640;-66
2022/08/26 08:40:08;;;;;;;;;;;;;;;23.53;76.31;96553.06;539499;263;62785;-68
2022/08/26 08:42:37;;;;;;;;;;;;;;;23.53;76.19;96563.00;539779;263;68873;-68
2022/08/26 08:45:07;;;;;;;;;;;;;;;23.53;76.23;96555.73;538997;263;66506;-68
2022/08/26 08:47:41;;;;;;;;;;;;;;;23.53;76.12;96558.42;539825;263;71137;-68
2022/08/26 08:50:10;;;;;;;;;;;;;;;23.53;76.11;96558.42;539595;260;69043;-71
2022/08/26 08:52:39;;;;;;;;;;;;;;;23.54;76.04;96548.48;539727;263;68626;-69
2022/08/26 08:55:07;;;;;;;;;;;;;;;23.53;76.04;96553.06;539810;263;62783;-66
2022/08/26 08:57:37;;;;;;;;;;;;;;;23.53;75.96;96553.06;539795;263;66554;-69
2022/08/26 09:00:06;;;;;;;;;;;;;;;23.55;76.11;96550.09;538835;263;68455;-66
2022/08/26 09:02:38;;;;;;;;;;;;;;;23.53;76.18;96547.70;539863;263;66170;-65
2022/08/26 09:05:19;;;;;;;;;;;;;;;23.53;76.31;96553.06;539718;263;68613;-68
2022/08/26 09:07:51;;;;;;;;;;;;;;;23.58;73.80;96550.28;539766;263;69077;-78
2022/08/26 09:10:32;;;;;;;;;;;;;;;23.62;73.08;96550.47;539783;263;65930;-69
2022/08/26 09:13:00;;;;;;;;;;;;;;;23.64;70.47;96559.02;539803;263;66618;-70
2022/08/26 09:15:42;;;;;;;;;;;;;;;23.64;75.01;96559.81;539777;263;68624;-66
2022/08/26 09:18:20;;;;;;;;;;;;;;;23.61;75.45;96546.21;539681;263;64860;-67
2022/08/26 09:20:49;;;;;;;;;;;;;;;23.58;75.54;96550.28;539659;263;68747;-66
2022/08/26 09:23:17;;;;;;;;;;;;;;;23.56;75.48;96549.78;539818;263;66529;-69
2022/08/26 09:25:47;;;;;;;;;;;;;;;23.56;75.40;96552.45;539837;263;62760;-69
2022/08/26 09:28:16;;;;;;;;;;;;;;;23.55;75.30;96550.88;539710;263;68616;-66
2022/08/26 09:30:45;;;;;;;;;;;;;;;23.54;75.17;96551.95;539808;263;68410;-67
2022/08/26 09:33:14;;;;;;;;;;;;;;;23.54;75.15;96560.00;539844;263;65131;-66
2022/08/26 09:35:45;;;;;;;;;;;;;;;23.54;75.00;96554.64;539740;263;68905;-67
2022/08/26 09:38:22;;;;;;;;;;;;;;;23.54;74.97;96551.16;539774;263;66117;-66
2022/08/26 09:41:00;;;;;;;;;;;;;;;23.54;75.17;96549.27;539817;263;62793;-69
2022/08/26 09:43:28;;;;;;;;;;;;;;;23.55;75.17;96550.09;539482;263;66480;-69
2022/08/26 09:45:57;;;;;;;;;;;;;;;23.54;75.19;96546.59;539244;263;66567;-69
2022/08/26 09:48:28;;;;;;;;;;;;;;;23.54;75.32;96541.23;533781;265;46812;-66
2022/08/26 09:50:59;;;;;;;;;;;;;;;23.55;75.40;96547.41;534088;265;66574;-69
2022/08/26 09:53:30;;;;;;;;;;;;;;;23.55;75.34;96544.73;533679;265;68939;-69
2022/08/26 09:56:11;;;;;;;;;;;;;;;23.55;75.39;96547.41;533690;265;63044;-69
2022/08/26 09:58:40;;;;;;;;;;;;;;;23.55;75.37;96540.16;534011;265;66699;-68
2022/08/26 10:01:09;;;;;;;;;;;;;;;23.54;75.44;96545.80;533721;265;68801;-66
2022/08/26 10:03:38;;;;;;;;;;;;;;;23.54;75.57;96541.23;533688;265;64970;-66
2022/08/26 10:06:07;;;;;;;;;;;;;;;23.55;75.56;96545.52;534084;265;68956;-65
2022/08/26 10:08:40;;;;;;;;;;;;;;;23.55;75.57;96542.05;533599;265;66795;-66
2022/08/26 10:11:10;;;;;;;;;;;;;;;23.54;75.65;96541.23;533867;265;65244;-65
2022/08/26 10:13:44;;;;;;;;;;;;;;;23.55;75.70;96539.36;533197;265;68937;-66
2022/08/26 10:16:23;;;;;;;;;;;;;;;23.55;75.70;96539.36;533947;265;68539;-68
2022/08/26 10:18:55;;;;;;;;;;;;;;;23.55;75.75;96534.79;533888;264;65617;-68
2022/08/26 10:21:24;;;;;;;;;;;;;;;23.55;75.79;96534.00;533038;265;66393;-67
2022/08/26 10:23:53;;;;;;;;;;;;;;;23.54;75.77;96533.18;532721;262;66855;-68
2022/08/26 10:26:25;;;;;;;;;;;;;;;23.54;75.80;96527.03;534104;262;65726;-67
2022/08/26 10:28:54;;;;;;;;;;;;;;;23.54;75.81;96530.50;534118;265;68792;-68
2022/08/26 10:31:32;;;;;;;;;;;;;;;23.54;75.82;96533.18;534028;265;66555;-68
2022/08/26 10:34:00;;;;;;;;;;;;;;;23.54;75.81;96527.81;534017;265;65180;-68
2022/08/26 10:39:15;;;;;;;;;;;;;;;23.55;75.84;96532.11;529500;265;69653;-67
2022/08/26 10:41:45;;;;;;;;;;;;;;;23.55;75.87;96537.47;529195;265;62830;-67
2022/08/26 10:44:14;;;;;;;;;;;;;;;23.55;75.94;96534.79;534171;265;68472;-64
2022/08/26 10:46:44;;;;;;;;;;;;;;;23.55;76.12;96539.36;534093;264;66694;-64
2022/08/26 10:49:14;;;;;;;;;;;;;;;23.55;76.11;96545.52;534014;265;67237;-63
2022/08/26 10:51:52;;;;;;;;;;;;;;;23.55;76.27;96545.52;534272;264;69805;-67
2022/08/26 10:54:21;;;;;;;;;;;;;;;23.55;76.33;96542.84;533960;265;66483;-63
2022/08/26 10:57:02;;;;;;;;;;;;;;;23.55;76.32;96540.16;534025;265;62915;-66
2022/08/26 10:59:37;;;;;;;;;;;;;;;23.55;76.36;96536.69;534185;265;68894;-66
2022/08/26 11:02:13;;;;;;;;;;;;;;;23.55;76.36;96528.64;533823;265;66530;-66
2022/08/26 11:04:42;;;;;;;;;;;;;;;23.55;76.42;96528.64;534110;265;65860;-67
2022/08/26 11:07:33;;;;;;;;;;;;;;;23.55;76.43;96521.38;534214;265;66836;-67
2022/08/26 11:09:59;;;;;;;;;;;;;;;23.55;76.54;96515.23;533966;265;66208;-67
2022/08/26 11:12:37;;;;;;;;;;;;;;;23.54;76.50;96509.05;533720;264;64992;-67
2022/08/26 11:15:11;;;;;;;;;;;;;;;23.56;72.42;96519.48;532137;265;47410;-67
2022/08/26 11:17:46;;;;;;;;;;;;;;;23.59;74.53;96518.88;531090;266;68953;-67
2022/08/26 11:20:24;;;;;;;;;;;;;;;23.58;75.72;96520.77;531110;264;65301;-67
2022/08/26 11:22:53;;;;;;;;;;;;;;;23.57;76.00;96511.15;530977;266;68651;-65
2022/08/26 11:25:25;;;;;;;;;;;;;;;23.58;76.12;96514.62;531181;266;68809;-65
2022/08/26 11:27:54;;;;;;;;;;;;;;;23.56;76.03;96508.75;531231;264;62978;-66
2022/08/26 11:30:23;;;;;;;;;;;;;;;23.56;76.13;96504.18;530715;266;66516;-66
2022/08/26 11:32:52;;;;;;;;;;;;;;;23.57;76.14;96516.52;531014;266;68565;-66
2022/08/26 11:35:24;;;;;;;;;;;;;;;23.56;76.22;96501.50;531347;266;62814;-66
2022/08/26 11:37:59;;;;;;;;;;;;;;;23.55;76.13;96497.23;531188;266;68801;-67
2022/08/26 11:40:31;;;;;;;;;;;;;;;23.56;76.15;96504.18;531054;266;66755;-67
2022/08/26 11:43:04;;;;;;;;;;;;;;;23.57;76.21;96497.74;531273;266;65273;-67
2022/08/26 11:45:39;;;;;;;;;;;;;;;23.55;76.13;96496.45;531083;266;69066;-67
2022/08/26 11:48:19;;;;;;;;;;;;;;;23.57;76.24;96497.74;531247;266;68627;-65
2022/08/26 11:50:53;;;;;;;;;;;;;;;23.58;71.67;96488.59;531519;264;65488;-66
2022/08/26 11:53:21;;;;;;;;;;;;;;;23.60;73.53;96494.45;531291;266;66565;-65
2022/08/26 11:55:50;;;;;;;;;;;;;;;23.60;71.70;96488.27;531316;266;66637;-64
2022/08/26 11:58:20;;;;;;;;;;;;;;;23.61;72.38;96485.30;531114;264;65163;-66
2022/08/26 12:00:50;;;;;;;;;;;;;;;23.61;75.08;96481.83;531035;266;68764;-65
2022/08/26 12:03:22;;;;;;;;;;;;;;;23.60;75.29;96482.91;531194;266;70497;-66
2022/08/26 12:05:51;;;;;;;;;;;;;;;23.59;75.79;96476.75;531157;264;64835;-65
2022/08/26 12:08:20;;;;;;;;;;;;;;;23.59;76.05;96474.07;531472;266;66966;-65
2022/08/26 12:10:49;;;;;;;;;;;;;;;23.59;76.23;96476.75;531449;266;68642;-65
2022/08/26 12:13:24;;;;;;;;;;;;;;;23.59;76.44;96474.07;530817;266;62853;-65
2022/08/26 12:15:53;;;;;;;;;;;;;;;23.59;76.52;96460.66;533593;265;66793;-67
2022/08/26 12:18:22;;;;;;;;;;;;;;;23.60;76.57;96466.81;533701;265;68615;-63
2022/08/26 12:20:54;;;;;;;;;;;;;;;23.59;76.64;96467.92;533818;265;65357;-66
2022/08/26 12:23:36;;;;;;;;;;;;;;;23.61;71.91;96453.11;533783;265;71349;-67
2022/08/26 12:26:05;;;;;;;;;;;;;;;23.63;75.77;96458.19;533823;265;68943;-67
2022/08/26 12:28:32;;;;;;;;;;;;;;;23.60;76.36;96448.86;533743;265;63204;-67
2022/08/26 12:31:01;;;;;;;;;;;;;;;23.59;76.25;96444.56;533812;265;66655;-66
2022/08/26 12:33:29;;;;;;;;;;;;;;;23.59;75.96;96446.46;533732;265;68664;-67
2022/08/26 12:36:00;;;;;;;;;;;;;;;23.56;75.71;96442.49;533871;265;46658;-67
2022/08/26 12:38:29;;;;;;;;;;;;;;;23.58;75.38;96442.20;533865;265;66809;-67
2022/08/26 12:40:57;;;;;;;;;;;;;;;23.57;75.38;96449.46;533750;265;67807;-67
2022/08/26 12:43:39;;;;;;;;;;;;;;;23.57;75.20;96438.73;533804;265;63153;-67
2022/08/26 12:46:08;;;;;;;;;;;;;;;23.57;74.90;96446.78;533811;265;68769;-67
2022/08/26 12:48:37;;;;;;;;;;;;;;;23.56;74.91;96452.44;533796;265;68355;-67
2022/08/26 12:51:10;;;;;;;;;;;;;;;23.56;74.71;96439.81;533691;265;65300;-68
2022/08/26 12:53:39;;;;;;;;;;;;;;;23.56;74.57;96439.02;533492;265;69157;-70
2022/08/26 12:56:20;;;;;;;;;;;;;;;23.56;74.56;96439.02;533515;265;69018;-67
2022/08/26 12:59:06;;;;;;;;;;;;;;;23.57;74.45;96436.05;533509;265;65311;-68
2022/08/26 13:01:38;;;;;;;;;;;;;;;23.58;75.04;96431.47;533637;265;68955;-67
2022/08/26 13:04:06;;;;;;;;;;;;;;;23.57;75.43;96428.00;533813;265;68820;-66
2022/08/26 13:06:36;;;;;;;;;;;;;;;23.58;75.73;96436.84;533795;265;65318;-69